Time;durP1;ratioP1;P1;durP2;ratioP2;P2;SDS_P1;SDS_P2;PMS_P1;PMS_P2;Temp;Humidity;BMP_temperature;BMP_pressure;BME280_temperature;BME280_humidity;BME280_pressure;Samples;Min_cycle;Max_cycle;Signal;HPM_P1;HPM_P2
2023/06/15 14:25:18;;;;;;;10.43;8.50;;;21.60;1.00;;;;;;6285348;22;20251;-96
2023/06/15 14:27:47;;;;;;;7.38;5.20;;;21.70;1.00;;;;;;6311406;22;20166;-96
2023/06/15 14:30:15;;;;;;;7.15;4.00;;;21.70;1.00;;;;;;6311531;22;20174;-96
2023/06/15 14:32:42;;;;;;;6.25;3.70;;;21.70;1.00;;;;;;6310641;22;20238;-96
2023/06/15 14:35:09;;;;;;;5.00;3.83;;;21.70;1.00;;;;;;6310010;22;20693;-96
2023/06/15 14:37:36;;;;;;;4.75;4.25;;;21.60;1.00;;;;;;6310694;22;20167;-96
2023/06/15 14:40:04;;;;;;;7.00;4.50;;;21.60;1.00;;;;;;6310266;22;20183;-96
2023/06/15 14:42:33;;;;;;;8.00;6.50;;;21.60;99.90;;;;;;6310999;22;20197;-96
2023/06/15 14:45:00;;;;;;;29.60;20.13;;;21.50;99.90;;;;;;6310759;22;20174;-96
2023/06/15 14:47:27;;;;;;;9.55;5.88;;;21.50;1.00;;;;;;6310674;22;20175;-96
2023/06/15 14:49:54;;;;;;;28.38;18.38;;;21.40;99.90;;;;;;6310307;22;20561;-96
2023/06/15 14:52:21;;;;;;;42.72;27.67;;;21.40;99.90;;;;;;6310831;22;20171;-96
2023/06/15 14:54:48;;;;;;;35.53;22.05;;;21.40;99.90;;;;;;6310556;22;20170;-96
2023/06/15 14:57:15;;;;;;;13.55;9.13;;;21.50;99.90;;;;;;6310376;22;20174;-96
2023/06/15 14:59:43;;;;;;;23.52;16.02;;;21.70;1.00;;;;;;6310391;22;20186;-96
2023/06/15 15:02:10;;;;;;;29.52;26.15;;;21.90;99.90;;;;;;6310464;22;20175;-96
2023/06/15 15:04:38;;;;;;;11.07;8.40;;;22.00;1.00;;;;;;6310585;22;20171;-95
2023/06/15 15:07:05;;;;;;;14.25;9.52;;;22.20;1.00;;;;;;6310100;22;20167;-96
2023/06/15 15:09:32;;;;;;;12.48;8.60;;;22.30;1.00;;;;;;6311015;22;20224;-96
2023/06/15 15:11:59;;;;;;;12.88;8.52;;;22.50;1.00;;;;;;6310597;22;20229;-95
2023/06/15 15:14:26;;;;;;;9.07;8.18;;;22.70;99.90;;;;;;6310301;22;20170;-96
2023/06/15 15:16:54;;;;;;;7.78;4.97;;;23.10;1.00;;;;;;6310723;22;20238;-96
2023/06/15 15:19:21;;;;;;;8.57;5.47;;;23.50;1.00;;;;;;6310221;22;20186;-96
2023/06/15 15:21:48;;;;;;;6.38;3.97;;;23.80;99.90;;;;;;6309959;22;20167;-96
2023/06/15 15:24:15;;;;;;;4.78;4.10;;;23.80;99.90;;;;;;6310657;22;20171;-96
2023/06/15 15:26:42;;;;;;;7.40;5.20;;;23.80;99.90;;;;;;6309742;22;20195;-96
2023/06/15 15:29:10;;;;;;;5.70;4.72;;;23.90;99.90;;;;;;6310238;22;20186;-96
2023/06/15 15:31:37;;;;;;;6.28;4.70;;;24.10;99.90;;;;;;6309967;22;20205;-95
2023/06/15 15:34:05;;;;;;;5.70;4.70;;;24.20;1.00;;;;;;6310338;22;20171;-96
2023/06/15 15:36:32;;;;;;;8.32;5.97;;;24.10;1.00;;;;;;6310114;22;20171;-96
2023/06/15 15:38:59;;;;;;;4.78;4.38;;;24.10;1.00;;;;;;6310041;22;20241;-96
2023/06/15 15:41:26;;;;;;;4.88;4.30;;;23.90;1.00;;;;;;6310352;22;20529;-96
2023/06/15 15:43:53;;;;;;;7.75;4.50;;;23.70;1.00;;;;;;6310046;22;20217;-96
2023/06/15 15:46:21;;;;;;;4.88;4.15;;;23.50;1.00;;;;;;6310284;22;20179;-96
2023/06/15 15:48:48;;;;;;;5.38;4.05;;;23.30;99.90;;;;;;6310069;22;20167;-96
2023/06/15 15:51:16;;;;;;;6.45;5.10;;;22.90;99.90;;;;;;6309967;22;20384;-96
2023/06/15 15:53:43;;;;;;;7.80;4.78;;;22.60;1.00;;;;;;6310159;22;20170;-96
2023/06/15 15:56:10;;;;;;;5.78;4.68;;;22.50;1.00;;;;;;6309794;22;20224;-96
2023/06/15 15:58:38;;;;;;;5.25;4.20;;;22.30;99.90;;;;;;6310013;22;20183;-96
2023/06/15 16:01:04;;;;;;;5.45;4.10;;;22.20;99.90;;;;;;6309864;22;20170;-96
2023/06/15 16:03:31;;;;;;;6.30;4.55;;;22.00;99.90;;;;;;6309834;22;20513;-94
2023/06/15 16:05:58;;;;;;;7.55;4.10;;;21.90;99.90;;;;;;6309403;22;20473;-96
2023/06/15 16:08:27;;;;;;;9.23;7.00;;;21.80;99.90;;;;;;6311064;22;20624;-95
2023/06/15 16:10:54;;;;;;;8.45;5.70;;;21.60;96.00;;;;;;6309976;22;20228;-95
2023/06/15 16:13:21;;;;;;;7.78;4.32;;;21.60;49.70;;;;;;6310033;22;20225;-95
2023/06/15 16:15:48;;;;;;;9.45;3.55;;;21.60;1.00;;;;;;6309440;22;20163;-95
2023/06/15 16:18:15;;;;;;;5.30;4.50;;;21.50;1.00;;;;;;6309607;22;20170;-95
2023/06/15 16:20:42;;;;;;;7.70;5.93;;;21.50;1.00;;;;;;6309337;22;20624;-95
2023/06/15 16:23:09;;;;;;;29.00;22.05;;;21.40;1.00;;;;;;6309616;22;20682;-95
2023/06/15 16:25:37;;;;;;;24.90;19.35;;;21.50;1.00;;;;;;6309652;22;20582;-95
2023/06/15 16:28:05;;;;;;;9.30;8.18;;;21.60;1.00;;;;;;6308420;22;20175;-94
2023/06/15 16:30:32;;;;;;;10.95;9.15;;;21.60;1.00;;;;;;6309738;22;20250;-93
2023/06/15 16:32:59;;;;;;;7.22;4.13;;;21.70;1.00;;;;;;6308916;22;20160;-95
2023/06/15 16:35:26;;;;;;;6.30;3.33;;;21.80;1.00;;;;;;6309327;22;20167;-94
2023/06/15 16:37:53;;;;;;;5.18;3.80;;;22.00;1.00;;;;;;6309073;22;20201;-95
2023/06/15 16:40:20;;;;;;;5.35;4.50;;;22.00;1.00;;;;;;6309356;22;20183;-96
2023/06/15 16:42:49;;;;;;;8.40;5.60;;;22.10;1.00;;;;;;6309339;22;20221;-95
2023/06/15 16:45:16;;;;;;;4.68;3.30;;;22.10;1.00;;;;;;6309438;22;20526;-94
2023/06/15 16:47:43;;;;;;;4.07;3.30;;;22.20;1.00;;;;;;6309652;22;20543;-94
2023/06/15 16:50:12;;;;;;;4.72;2.90;;;22.20;1.00;;;;;;6309059;22;20524;-95
2023/06/15 16:52:39;;;;;;;7.78;3.75;;;22.30;1.00;;;;;;6308322;22;20533;-95
2023/06/15 16:55:07;;;;;;;5.25;4.10;;;22.30;1.00;;;;;;6313397;22;20171;-96
2023/06/15 16:57:34;;;;;;;7.20;3.92;;;22.40;1.00;;;;;;6332218;22;20174;-96
2023/06/15 17:00:02;;;;;;;19.83;17.73;;;22.60;1.00;;;;;;6329136;22;20195;-96
2023/06/15 17:02:30;;;;;;;7.10;5.90;;;22.70;1.00;;;;;;6334566;22;20166;-96
2023/06/15 17:07:30;;;;;;;5.72;4.00;;;23.10;1.00;;;;;;6345230;22;20197;-96
2023/06/15 17:09:57;;;;;;;10.85;9.20;;;23.90;1.00;;;;;;6330665;22;20174;-96
2023/06/15 17:12:24;;;;;;;11.18;5.93;;;25.00;99.90;;;;;;6326735;22;20159;-96
2023/06/15 17:14:51;;;;;;;6.55;3.40;;;25.20;99.90;;;;;;6330308;22;20174;-96
2023/06/15 17:17:20;;;;;;;5.28;3.50;;;24.90;99.90;;;;;;6331224;22;20197;-96
2023/06/15 17:19:47;;;;;;;5.13;3.03;;;24.80;99.90;;;;;;6327267;22;20186;-96
2023/06/15 17:22:14;;;;;;;5.90;3.80;;;24.80;99.90;;;;;;6326485;22;20171;-96
2023/06/15 17:24:41;;;;;;;5.50;4.18;;;24.70;99.90;;;;;;6321374;22;20240;-96
2023/06/15 17:27:10;;;;;;;5.10;3.60;;;24.30;99.90;;;;;;6331394;22;20177;-96
2023/06/15 17:29:37;;;;;;;6.88;3.85;;;23.80;99.90;;;;;;6332585;22;20167;-96
2023/06/15 17:32:05;;;;;;;4.80;3.63;;;23.50;99.90;;;;;;6334237;22;20175;-96
2023/06/15 17:37:09;;;;;;;6.65;3.67;;;23.80;99.90;;;;;;6323849;22;20205;-90
2023/06/15 17:42:11;;;;;;;6.47;3.63;;;23.90;99.90;;;;;;6331190;22;20181;-96
2023/06/15 17:47:14;;;;;;;3.90;3.50;;;23.10;99.90;;;;;;6326600;22;20207;-96
2023/06/15 17:52:18;;;;;;;7.55;4.13;;;22.90;99.90;;;;;;6329298;22;20205;-96
2023/06/15 17:59:52;;;;;;;7.03;4.00;;;22.20;99.90;;;;;;6350421;22;20195;-94
2023/06/15 18:12:42;;;;;;;8.43;4.65;;;21.20;1.00;;;;;;6316263;22;20274;-92
2023/06/15 18:17:40;;;;;;;8.52;4.70;;;20.80;58.30;;;;;;6323596;22;20185;-95
2023/06/15 18:20:08;;;;;;;7.15;4.20;;;20.70;99.90;;;;;;6329263;22;20246;-96
2023/06/15 18:25:10;;;;;;;6.45;4.60;;;20.40;99.90;;;;;;6318236;22;20182;-96
2023/06/15 18:27:38;;;;;;;5.90;4.45;;;20.30;99.90;;;;;;6330578;22;20228;-96
2023/06/15 18:30:09;;;;;;;6.72;4.72;;;20.10;99.90;;;;;;6315618;22;20178;-95
2023/06/15 18:32:37;;;;;;;8.30;4.63;;;19.90;1.00;;;;;;6313953;22;20241;-95
2023/06/15 18:35:05;;;;;;;8.75;4.65;;;19.70;1.00;;;;;;6308353;22;20197;-93
2023/06/15 18:37:31;;;;;;;7.95;4.93;;;19.70;1.00;;;;;;6307764;22;20232;-92
2023/06/15 18:39:58;;;;;;;7.70;4.95;;;19.60;99.90;;;;;;6308460;22;20264;-92
2023/06/15 18:42:25;;;;;;;7.80;4.82;;;19.50;99.90;;;;;;6308533;22;20248;-94
2023/06/15 18:44:52;;;;;;;9.38;4.80;;;19.50;99.90;;;;;;6308117;22;20632;-93
2023/06/15 18:47:21;;;;;;;6.75;4.95;;;19.50;99.90;;;;;;6308097;22;20171;-94
2023/06/15 18:49:49;;;;;;;7.90;4.72;;;19.40;99.90;;;;;;6307781;22;20189;-92
2023/06/15 18:52:17;;;;;;;8.35;4.93;;;19.30;1.00;;;;;;6308531;22;20653;-93
2023/06/15 18:54:44;;;;;;;7.20;5.10;;;19.30;99.90;;;;;;6308407;22;20159;-92
2023/06/15 18:57:12;;;;;;;6.70;4.70;;;19.20;99.90;;;;;;6308489;22;20559;-92
2023/06/15 18:59:39;;;;;;;6.72;4.45;;;19.20;99.90;;;;;;6308788;22;20218;-92
2023/06/15 19:02:07;;;;;;;9.77;5.10;;;19.10;99.90;;;;;;6311353;22;20193;-92
2023/06/15 19:04:35;;;;;;;8.25;5.10;;;19.10;99.90;;;;;;6310644;22;20221;-92
2023/06/15 19:07:02;;;;;;;5.68;4.72;;;19.10;99.90;;;;;;6310571;22;20171;-92
2023/06/15 19:09:29;;;;;;;10.93;6.45;;;19.10;99.90;;;;;;6308616;22;20212;-90
2023/06/15 19:11:57;;;;;;;10.32;7.10;;;19.10;1.00;;;;;;6309910;22;20175;-92
2023/06/15 19:14:25;;;;;;;9.48;6.60;;;19.00;1.00;;;;;;6309112;22;20171;-91
2023/06/15 19:16:52;;;;;;;10.02;6.68;;;18.90;1.00;;;;;;6309887;22;20167;-91
2023/06/15 19:19:19;;;;;;;10.75;8.77;;;18.80;1.00;;;;;;6309272;22;20175;-91
2023/06/15 19:21:47;;;;;;;13.73;12.00;;;18.70;1.00;;;;;;6311392;22;20167;-92
2023/06/15 19:24:15;;;;;;;14.07;10.48;;;18.60;99.90;;;;;;6312255;22;20199;-91
2023/06/15 19:26:42;;;;;;;9.73;7.68;;;18.60;99.90;;;;;;6308502;22;20162;-93
2023/06/15 19:29:09;;;;;;;18.92;15.27;;;18.50;99.90;;;;;;6308622;22;20162;-93
2023/06/15 19:31:36;;;;;;;23.33;17.42;;;18.50;99.90;;;;;;6309127;22;20439;-93
2023/06/15 19:34:04;;;;;;;20.73;14.02;;;18.50;99.90;;;;;;6309315;22;20171;-93
2023/06/15 19:36:32;;;;;;;18.08;11.38;;;18.50;99.90;;;;;;6309957;22;20175;-93
2023/06/15 19:39:01;;;;;;;11.98;10.40;;;18.50;1.00;;;;;;6310287;22;20163;-92
2023/06/15 19:41:28;;;;;;;14.23;9.00;;;18.40;1.00;;;;;;6310127;22;20194;-93
2023/06/15 19:43:55;;;;;;;11.02;8.65;;;18.40;1.00;;;;;;6309590;22;20167;-93
2023/06/15 19:46:26;;;;;;;13.25;9.48;;;18.40;1.00;;;;;;6309815;22;20167;-91
2023/06/15 19:48:55;;;;;;;17.23;11.65;;;18.40;1.00;;;;;;6320921;22;20173;-90
2023/06/15 19:51:22;;;;;;;24.70;13.48;;;18.30;1.00;;;;;;6322459;22;20163;-91
2023/06/15 19:53:49;;;;;;;18.55;13.57;;;18.40;1.00;;;;;;6320613;22;20546;-91
2023/06/15 19:56:21;;;;;;;19.48;11.93;;;18.30;1.00;;;;;;6319595;22;20167;-91
2023/06/15 19:58:49;;;;;;;17.88;13.35;;;18.30;1.00;;;;;;6320643;22;20544;-92
2023/06/15 20:01:16;;;;;;;19.80;11.82;;;18.30;1.00;;;;;;6313678;22;20186;-92
2023/06/15 20:03:43;;;;;;;16.60;11.20;;;18.30;1.00;;;;;;6309587;22;20160;-92
2023/06/15 20:06:10;;;;;;;14.85;10.50;;;18.30;1.00;;;;;;6309090;22;20612;-93
2023/06/15 20:08:38;;;;;;;14.50;10.25;;;18.30;1.00;;;;;;6309388;22;20175;-92
2023/06/15 20:11:07;;;;;;;13.45;10.27;;;18.30;1.00;;;;;;6309410;22;20170;-93
2023/06/15 20:13:37;;;;;;;11.95;9.98;;;18.20;1.00;;;;;;6309883;22;20554;-92
2023/06/15 20:16:11;;;;;;;12.80;9.63;;;18.20;1.00;;;;;;6309014;22;20197;-93
2023/06/15 20:18:39;;;;;;;16.85;10.63;;;18.20;1.00;;;;;;6309438;22;20212;-91
2023/06/15 20:21:06;;;;;;;14.18;10.82;;;18.20;1.00;;;;;;6308600;22;20224;-91
2023/06/15 20:23:33;;;;;;;13.32;10.45;;;18.10;1.00;;;;;;6308697;22;20621;-92
2023/06/15 20:26:00;;;;;;;13.35;10.65;;;18.10;15.70;;;;;;6309357;22;20523;-92
2023/06/15 20:28:30;;;;;;;15.68;11.70;;;18.00;92.90;;;;;;6309677;22;20167;-93
2023/06/15 20:30:58;;;;;;;15.65;10.70;;;18.00;99.90;;;;;;6310289;22;20176;-92
2023/06/15 20:33:26;;;;;;;14.35;9.68;;;18.00;99.90;;;;;;6309575;22;20236;-92
2023/06/15 20:35:53;;;;;;;13.57;9.73;;;17.90;99.90;;;;;;6310426;22;20170;-92
2023/06/15 20:38:20;;;;;;;14.18;9.15;;;17.80;99.90;;;;;;6309320;22;20225;-93
2023/06/15 20:40:47;;;;;;;13.77;8.77;;;17.70;99.90;;;;;;6309661;22;20232;-92
2023/06/15 20:43:14;;;;;;;14.50;9.38;;;17.70;1.00;;;;;;6309597;22;20163;-92
2023/06/15 20:45:41;;;;;;;14.43;8.70;;;17.60;1.00;;;;;;6309880;22;20621;-93
2023/06/15 20:48:10;;;;;;;10.95;8.57;;;17.50;1.00;;;;;;6309670;22;20232;-92
2023/06/15 20:50:37;;;;;;;12.55;8.40;;;17.50;1.00;;;;;;6309990;22;20196;-92
2023/06/15 20:53:05;;;;;;;12.27;8.48;;;17.40;1.00;;;;;;6309009;22;20171;-93
2023/06/15 20:55:32;;;;;;;11.00;8.20;;;17.30;1.00;;;;;;6308597;22;20175;-92
2023/06/15 20:58:00;;;;;;;12.35;8.50;;;17.20;1.00;;;;;;6308941;22;20163;-92
2023/06/15 21:00:27;;;;;;;11.35;7.88;;;17.00;1.00;;;;;;6308817;22;20714;-93
2023/06/15 21:02:55;;;;;;;10.40;7.97;;;16.90;1.00;;;;;;6308005;22;20170;-92
2023/06/15 21:05:24;;;;;;;9.98;7.50;;;16.80;1.00;;;;;;6308920;22;20176;-92
2023/06/15 21:07:51;;;;;;;9.80;7.63;;;16.80;1.00;;;;;;6308567;22;20171;-92
2023/06/15 21:10:19;;;;;;;12.13;6.95;;;16.70;1.00;;;;;;6308860;22;20240;-92
2023/06/15 21:12:46;;;;;;;11.02;6.57;;;16.60;1.00;;;;;;6308751;22;20167;-92
2023/06/15 21:15:14;;;;;;;9.52;6.82;;;16.60;1.00;;;;;;6309167;22;20226;-93
2023/06/15 21:17:42;;;;;;;8.88;6.40;;;16.50;1.00;;;;;;6308595;22;20166;-92
2023/06/15 21:20:10;;;;;;;8.88;6.38;;;16.40;1.00;;;;;;6308702;22;20653;-92
2023/06/15 21:22:39;;;;;;;8.50;6.40;;;16.30;1.00;;;;;;6308377;22;20206;-92
2023/06/15 21:25:07;;;;;;;7.95;6.68;;;16.30;1.00;;;;;;6308224;22;20197;-91
2023/06/15 21:27:34;;;;;;;10.43;6.57;;;16.20;9.50;;;;;;6309170;22;20212;-93
2023/06/15 21:30:01;;;;;;;8.93;6.53;;;16.20;31.40;;;;;;6310079;22;20565;-93
2023/06/15 21:32:27;;;;;;;11.75;7.10;;;16.20;51.10;;;;;;6308958;22;20174;-92
2023/06/15 21:34:54;;;;;;;9.15;6.30;;;16.20;94.90;;;;;;6308580;22;20554;-93
2023/06/15 21:37:21;;;;;;;9.27;6.72;;;16.10;99.90;;;;;;6308729;22;20177;-91
2023/06/15 21:39:50;;;;;;;9.48;5.88;;;16.10;99.90;;;;;;6308459;22;20174;-92
2023/06/15 21:42:18;;;;;;;11.80;6.90;;;16.10;99.90;;;;;;6308769;22;20170;-93
2023/06/15 21:44:48;;;;;;;10.77;7.07;;;16.10;99.90;;;;;;6309191;22;20233;-92
2023/06/15 21:47:15;;;;;;;12.13;6.32;;;16.10;99.90;;;;;;6308162;22;20168;-94
2023/06/15 21:49:42;;;;;;;8.88;6.45;;;16.00;99.90;;;;;;6308982;22;20273;-92
2023/06/15 21:52:10;;;;;;;8.00;6.00;;;16.00;99.90;;;;;;6308893;22;20245;-92
2023/06/15 21:54:38;;;;;;;12.60;6.15;;;15.90;99.90;;;;;;6308918;22;20654;-91
2023/06/15 21:57:07;;;;;;;10.63;6.38;;;15.90;99.90;;;;;;6308847;22;20224;-93
2023/06/15 21:59:34;;;;;;;9.15;6.50;;;15.90;99.90;;;;;;6309150;22;20282;-93
2023/06/15 22:02:01;;;;;;;11.68;6.05;;;15.90;99.90;;;;;;6309083;22;20189;-93
2023/06/15 22:04:28;;;;;;;11.57;6.30;;;15.90;99.90;;;;;;6308959;22;20485;-93
2023/06/15 22:06:55;;;;;;;8.00;6.40;;;15.90;99.90;;;;;;6308590;22;20222;-92
2023/06/15 22:09:23;;;;;;;9.27;5.85;;;15.90;99.90;;;;;;6308637;22;20760;-93
2023/06/15 22:11:50;;;;;;;10.80;6.07;;;15.90;99.90;;;;;;6309212;22;20169;-95
